Time;durP1;ratioP1;P1;durP2;ratioP2;P2;SDS_P1;SDS_P2;PMS_P1;PMS_P2;Temp;Humidity;BMP_temperature;BMP_pressure;BME280_temperature;BME280_humidity;BME280_pressure;Samples;Min_cycle;Max_cycle;Signal;HPM_P1;HPM_P2
2022/11/16 00:00:23;;;;;;;26.90;13.60;;;;;;;7.19;74.61;99906.72;104879;1291;139828;-82
2022/11/16 00:02:54;;;;;;;26.60;13.70;;;;;;;7.22;74.51;99911.25;105003;1291;93698;-83
2022/11/16 00:05:26;;;;;;;24.20;13.90;;;;;;;7.25;74.49;99912.79;104929;1286;141962;-81
2022/11/16 00:07:59;;;;;;;26.70;14.20;;;;;;;7.26;74.38;99909.05;105044;1299;108522;-83
2022/11/16 00:10:30;;;;;;;24.70;12.80;;;;;;;7.21;74.41;99909.34;104938;1287;142318;-83
2022/11/16 00:13:00;;;;;;;24.00;13.10;;;;;;;7.15;73.99;99905.92;105027;1284;107503;-84
2022/11/16 00:15:31;;;;;;;23.90;13.50;;;;;;;7.04;74.57;99904.91;104998;1294;93035;-82
2022/11/16 00:18:02;;;;;;;24.20;13.10;;;;;;;7.01;74.85;99901.60;104889;1291;140558;-81
2022/11/16 00:20:33;;;;;;;22.40;12.40;;;;;;;7.04;74.57;99897.14;105006;1299;108332;-82
2022/11/16 00:23:04;;;;;;;21.10;12.00;;;;;;;6.97;74.70;99897.45;104886;1292;140381;-82
2022/11/16 00:25:36;;;;;;;22.10;12.50;;;;;;;6.94;74.81;99896.63;104974;1290;107478;-81
2022/11/16 00:28:07;;;;;;;23.70;12.60;;;;;;;6.95;74.84;99898.55;105027;1293;93441;-81
2022/11/16 00:30:38;;;;;;;22.00;12.40;;;;;;;7.00;75.04;99898.27;104973;1294;93192;-82
2022/11/16 00:33:11;;;;;;;23.30;12.40;;;;;;;7.04;74.54;99899.79;104953;1284;108022;-82
2022/11/16 00:35:42;;;;;;;22.20;12.00;;;;;;;7.00;74.70;99896.86;104854;1295;139592;-82
2022/11/16 00:38:13;;;;;;;22.80;12.30;;;;;;;7.06;74.76;99896.20;104991;1291;107555;-83
2022/11/16 00:40:45;;;;;;;21.50;11.50;;;;;;;7.03;74.28;99890.25;104731;1295;140816;-82
2022/11/16 00:43:16;;;;;;;20.60;12.00;;;;;;;6.98;74.48;99888.59;104972;1292;93496;-83
2022/11/16 00:45:47;;;;;;;21.20;11.80;;;;;;;6.95;74.30;99890.08;104994;1290;110440;-82
2022/11/16 00:48:18;;;;;;;19.80;11.60;;;;;;;6.98;74.94;99891.07;104876;1284;140570;-82
2022/11/16 00:50:49;;;;;;;20.20;11.30;;;;;;;7.10;75.01;99892.23;104834;1293;108806;-81
2022/11/16 00:53:21;;;;;;;21.90;12.10;;;;;;;7.24;74.40;99893.39;104804;1284;140810;-83
2022/11/16 00:55:52;;;;;;;22.00;11.90;;;;;;;7.28;74.03;99886.94;104931;1280;93802;-83
2022/11/16 00:58:23;;;;;;;20.30;11.30;;;;;;;7.29;74.25;99885.51;104848;1291;138952;-82
2022/11/16 01:01:07;;;;;;;19.10;11.30;;;;;;;7.30;73.78;99886.34;104906;1283;99222;-82
2022/11/16 01:03:38;;;;;;;19.90;11.10;;;;;;;7.31;73.83;99885.98;105001;1292;107534;-83
2022/11/16 01:06:13;;;;;;;19.90;11.50;;;;;;;7.31;73.39;99880.35;104870;1291;139776;-83
2022/11/16 01:08:44;;;;;;;22.00;11.70;;;;;;;7.23;73.60;99868.33;105006;1291;93069;-83
2022/11/16 01:14:07;;;;;;;18.10;10.10;;;;;;;7.25;73.63;99867.59;104992;1284;98526;-83
2022/11/16 01:16:39;;;;;;;18.00;9.70;;;;;;;7.22;73.70;99869.41;104859;1284;140289;-83
2022/11/16 01:19:10;;;;;;;16.90;9.20;;;;;;;7.12;73.37;99867.31;105063;1295;93321;-81
2022/11/16 01:21:41;;;;;;;15.90;8.90;;;;;;;6.98;73.72;99861.96;105012;1288;93318;-82
2022/11/16 01:24:12;;;;;;;14.90;8.20;;;;;;;6.93;73.90;99860.10;104981;1294;138943;-80
2022/11/16 01:26:42;;;;;;;15.40;7.70;;;;;;;6.86;73.70;99861.66;104957;1292;97968;-81
2022/11/16 01:29:14;;;;;;;15.00;7.80;;;;;;;6.73;73.70;99855.92;104775;1294;142590;-83
2022/11/16 01:31:49;;;;;;;13.90;7.80;;;;;;;6.63;74.25;99851.17;104988;1295;94565;-83
2022/11/16 01:34:20;;;;;;;14.10;7.70;;;;;;;6.62;74.54;99848.19;104840;1292;139385;-83
2022/11/16 01:36:52;;;;;;;13.90;8.00;;;;;;;6.70;74.60;99852.27;104902;1291;109584;-84
2022/11/16 01:39:23;;;;;;;13.70;7.20;;;;;;;6.80;74.72;99854.88;105056;1294;98173;-82
2022/11/16 01:41:58;;;;;;;14.00;7.70;;;;;;;6.92;74.19;99853.07;104821;1294;141666;-81
2022/11/16 01:45:06;;;;;;;14.90;7.90;;;;;;;6.90;73.93;99852.05;104888;1289;94884;-83
2022/11/16 01:47:37;;;;;;;13.70;7.70;;;;;;;6.82;73.68;99848.14;104843;1292;139943;-82
2022/11/16 01:50:13;;;;;;;15.50;8.70;;;;;;;6.82;73.74;99852.20;104980;1294;108540;-83
2022/11/16 01:52:53;;;;;;;14.20;7.50;;;;;;;6.78;74.16;99847.15;104793;1292;141336;-82
2022/11/16 01:55:28;;;;;;;14.20;8.00;;;;;;;6.74;73.50;99838.09;104968;1298;106989;-82
2022/11/16 01:58:25;;;;;;;14.80;8.30;;;;;;;6.58;73.86;99833.98;104544;1281;139897;-82
2022/11/16 02:01:01;;;;;;;13.80;7.50;;;;;;;6.54;74.53;99829.45;104957;1298;93039;-82
2022/11/16 02:03:52;;;;;;;14.50;8.50;;;;;;;6.57;74.36;99825.54;105008;1291;108514;-82
2022/11/16 02:06:45;;;;;;;14.20;7.50;;;;;;;6.51;74.18;99826.87;104833;1287;141557;-82
2022/11/16 02:09:57;;;;;;;13.40;7.70;;;;;;;6.46;74.67;99826.27;104864;1301;107732;-83
2022/11/16 02:12:53;;;;;;;12.80;7.30;;;;;;;6.59;74.72;99829.91;104768;1295;140195;-82
2022/11/16 02:15:32;;;;;;;15.10;8.00;;;;;;;6.60;74.14;99823.54;104863;1291;93430;-82
2022/11/16 02:18:21;;;;;;;13.10;7.40;;;;;;;6.57;73.94;99822.17;104766;1294;140682;-83
2022/11/16 02:21:09;;;;;;;14.90;7.90;;;;;;;6.59;74.33;99826.36;104938;1283;100112;-82
2022/11/16 02:24:02;;;;;;;12.60;7.30;;;;;;;6.67;74.12;99824.80;104688;1293;140317;-83
2022/11/16 02:26:56;;;;;;;13.70;7.60;;;;;;;6.73;73.85;99819.05;104886;1292;94312;-83
2022/11/16 02:29:34;;;;;;;13.40;7.40;;;;;;;6.76;73.92;99812.27;104871;1295;138123;-82
2022/11/16 02:32:10;;;;;;;13.50;7.50;;;;;;;6.77;73.66;99813.33;105007;1291;107407;-82
2022/11/16 02:34:45;;;;;;;11.30;6.20;;;;;;;6.71;73.18;99812.73;104766;1299;140387;-88
2022/11/16 02:37:19;;;;;;;13.70;7.70;;;;;;;6.59;73.44;99812.09;104993;1292;108118;-82
2022/11/16 02:39:53;;;;;;;12.90;7.40;;;;;;;6.56;73.61;99805.98;104772;1291;180742;-81
2022/11/16 02:42:29;;;;;;;13.30;6.90;;;;;;;6.54;73.75;99807.59;104790;1292;140398;-82
2022/11/16 02:45:02;;;;;;;13.80;7.20;;;;;;;6.57;73.86;99810.01;104960;1284;107312;-82
2022/11/16 02:47:35;;;;;;;12.40;7.00;;;;;;;6.60;73.66;99800.61;104864;1284;140975;-81
2022/11/16 02:50:10;;;;;;;14.40;7.50;;;;;;;6.55;73.51;99798.77;104933;1285;107099;-82
2022/11/16 02:52:41;;;;;;;13.70;7.00;;;;;;;6.52;73.69;99794.39;104721;1290;141096;-82
2022/11/16 02:55:13;;;;;;;13.90;7.30;;;;;;;6.54;73.71;99795.61;104871;1292;94023;-81
2022/11/16 02:57:55;;;;;;;12.80;7.20;;;;;;;6.59;73.96;99794.09;104906;1292;107294;-82
2022/11/16 03:00:31;;;;;;;13.30;7.10;;;;;;;6.67;73.88;99792.52;104766;1300;141096;-82
2022/11/16 03:03:11;;;;;;;11.90;6.70;;;;;;;6.69;73.46;99783.66;104899;1302;106567;-82
2022/11/16 03:05:48;;;;;;;12.70;7.40;;;;;;;6.70;73.52;99775.70;104835;1292;142163;-82
2022/11/16 03:08:23;;;;;;;12.70;7.20;;;;;;;6.71;73.11;99772.68;104886;1283;92871;-82
2022/11/16 03:13:47;;;;;;;12.90;7.20;;;;;;;6.73;73.44;99764.52;104930;1294;96950;-82
2022/11/16 03:16:22;;;;;;;12.80;7.10;;;;;;;6.75;73.21;99762.91;104883;1291;139686;-82
2022/11/16 03:18:57;;;;;;;12.80;7.30;;;;;;;6.78;72.91;99763.72;104976;1292;94461;-82
2022/11/16 03:21:32;;;;;;;13.40;7.40;;;;;;;6.77;73.28;99774.85;105114;1294;93355;-82
2022/11/16 03:24:05;;;;;;;13.20;7.10;;;;;;;6.83;73.16;99782.13;104802;1283;139902;-83
2022/11/16 03:26:46;;;;;;;14.30;7.30;;;;;;;6.80;72.85;99783.08;104953;1289;97720;-81
2022/11/16 03:29:26;;;;;;;13.60;7.40;;;;;;;6.69;72.81;99779.97;104784;1301;141891;-82
2022/11/16 03:32:03;;;;;;;14.40;7.90;;;;;;;6.60;73.28;99772.75;104902;1284;93208;-82
2022/11/16 03:34:38;;;;;;;13.40;7.10;;;;;;;6.62;73.28;99766.88;104904;1294;140469;-82
2022/11/16 03:37:10;;;;;;;13.50;7.50;;;;;;;6.64;73.60;99766.48;104989;1292;107722;-82
2022/11/16 03:39:41;;;;;;;13.90;7.80;;;;;;;6.66;73.08;99769.63;104859;1294;98303;-82
2022/11/16 03:42:13;;;;;;;15.10;8.40;;;;;;;6.62;73.11;99768.45;104760;1295;139874;-82
2022/11/16 03:44:47;;;;;;;13.50;7.80;;;;;;;6.65;73.68;99766.64;104896;1278;93186;-83
2022/11/16 03:47:18;;;;;;;14.40;7.60;;;;;;;6.74;73.95;99763.63;104864;1299;141209;-82
2022/11/16 03:49:49;;;;;;;15.60;8.30;;;;;;;6.82;73.42;99765.04;104902;1295;109326;-82
2022/11/16 03:52:28;;;;;;;15.70;8.20;;;;;;;6.82;73.31;99764.00;104832;1294;139397;-82
2022/11/16 03:54:59;;;;;;;14.20;8.00;;;;;;;6.83;73.16;99758.14;104956;1294;107534;-82
2022/11/16 03:57:30;;;;;;;14.60;8.10;;;;;;;6.76;72.97;99752.13;104955;1298;93340;-82
2022/11/16 04:00:01;;;;;;;15.20;8.50;;;;;;;6.70;73.30;99758.59;104905;1295;138568;-81
2022/11/16 04:02:42;;;;;;;15.20;8.60;;;;;;;6.66;73.48;99754.63;105001;1292;108674;-82
2022/11/16 04:25:15;;;;;;;15.40;8.90;;;;;;;6.44;73.55;99735.48;104948;1291;93352;-81
2022/11/16 04:38:59;;;;;;;16.80;9.70;;;;;;;6.74;73.88;99732.59;104924;1284;93126;-81
2022/11/16 04:44:20;;;;;;;17.80;10.30;;;;;;;6.79;73.34;99736.17;104908;1294;110744;-82
2022/11/16 04:47:07;;;;;;;19.30;10.20;;;;;;;6.76;73.74;99739.06;104854;1292;141814;-81
2022/11/16 04:49:39;;;;;;;18.80;10.50;;;;;;;6.78;73.86;99742.02;104869;1299;107764;-82
2022/11/16 04:52:10;;;;;;;18.40;10.50;;;;;;;6.77;73.83;99739.05;104865;1292;93583;-82
2022/11/16 04:54:41;;;;;;;18.20;11.00;;;;;;;6.77;74.51;99736.58;104898;1284;93830;-81
2022/11/16 04:57:12;;;;;;;18.90;11.00;;;;;;;6.81;74.45;99738.08;105025;1284;107549;-82
2022/11/16 04:59:43;;;;;;;19.80;10.60;;;;;;;6.81;74.57;99738.06;104827;1292;140412;-81
2022/11/16 05:02:14;;;;;;;18.20;10.50;;;;;;;6.94;74.76;99739.21;104971;1291;107314;-82
2022/11/16 05:04:56;;;;;;;19.80;11.00;;;;;;;6.99;74.43;99738.91;104815;1290;141511;-82
2022/11/16 05:07:28;;;;;;;18.70;10.80;;;;;;;6.96;74.26;99741.10;104970;1294;93920;-83
2022/11/16 05:10:08;;;;;;;19.30;10.60;;;;;;;6.96;74.49;99737.05;104901;1299;109152;-82
2022/11/16 05:12:39;;;;;;;19.90;11.60;;;;;;;6.99;74.62;99738.02;104856;1290;140027;-83
2022/11/16 05:15:11;;;;;;;20.20;11.10;;;;;;;7.07;74.74;99734.86;104951;1294;107626;-83
2022/11/16 05:17:42;;;;;;;19.60;11.70;;;;;;;7.14;74.87;99733.64;104797;1295;140479;-83
2022/11/16 05:24:32;;;;;;;21.10;12.00;;;;;;;7.29;74.53;99735.95;104840;1301;139865;-82
2022/11/16 05:25:57;;;;;;;19.70;11.60;;;;;;;7.26;74.46;99736.89;104941;1293;98291;-82
2022/11/16 05:28:28;;;;;;;22.60;11.70;;;;;;;7.25;74.61;99733.91;104888;1284;139433;-82
2022/11/16 05:30:59;;;;;;;19.70;11.60;;;;;;;7.24;74.96;99729.34;104895;1291;94493;-81
2022/11/16 05:33:30;;;;;;;21.10;11.90;;;;;;;7.30;74.67;99733.79;104942;1288;94922;-81
2022/11/16 05:36:01;;;;;;;21.10;12.60;;;;;;;7.35;74.76;99732.63;104784;1293;138485;-81
2022/11/16 05:38:32;;;;;;;20.90;12.00;;;;;;;7.33;74.93;99731.26;104913;1301;98369;-82
2022/11/16 05:41:03;;;;;;;22.20;12.50;;;;;;;7.32;74.97;99729.16;104914;1297;139850;-82
2022/11/16 05:43:34;;;;;;;21.40;12.60;;;;;;;7.22;74.98;99730.46;104946;1294;93112;-82
2022/11/16 05:46:20;;;;;;;20.10;11.40;;;;;;;7.07;75.41;99729.57;104809;1289;139134;-81
2022/11/16 05:48:51;;;;;;;21.50;11.90;;;;;;;6.92;76.10;99724.77;104995;1299;108535;-82
2022/11/16 05:51:22;;;;;;;21.10;11.50;;;;;;;6.90;76.33;99726.42;105075;1278;97241;-82
2022/11/16 05:53:54;;;;;;;20.10;11.80;;;;;;;6.88;76.40;99727.33;104849;1295;143600;-82
2022/11/16 05:56:25;;;;;;;21.40;11.60;;;;;;;6.87;76.61;99728.59;104980;1302;92850;-82
2022/11/16 05:58:57;;;;;;;21.00;11.20;;;;;;;6.79;76.69;99729.98;104835;1302;141062;-82
2022/11/16 06:01:28;;;;;;;20.40;11.50;;;;;;;6.76;77.21;99728.13;104927;1298;108454;-82
2022/11/16 06:04:00;;;;;;;65.30;49.40;;;;;;;6.79;77.20;99728.95;104962;1299;97673;-82
2022/11/16 06:06:31;;;;;;;21.90;13.00;;;;;;;6.79;77.09;99731.23;104854;1294;138751;-81
2022/11/16 06:09:03;;;;;;;20.80;11.60;;;;;;;6.77;76.90;99734.98;104911;1289;93643;-82
2022/11/16 06:11:36;;;;;;;20.70;11.70;;;;;;;6.79;77.24;99734.95;104871;1301;141863;-82
2022/11/16 06:14:08;;;;;;;21.20;12.20;;;;;;;6.87;77.09;99740.23;105026;1293;109656;-82
2022/11/16 06:16:38;;;;;;;20.70;11.70;;;;;;;6.88;76.93;99743.74;104895;1294;139218;-81
2022/11/16 06:19:10;;;;;;;20.70;11.60;;;;;;;6.87;76.54;99748.20;104955;1294;108271;-82
2022/11/16 06:21:41;;;;;;;19.90;11.40;;;;;;;6.76;76.67;99746.81;104951;1302;94032;-82
2022/11/16 06:24:17;;;;;;;19.70;11.00;;;;;;;6.65;76.90;99751.27;104805;1300;140515;-81
2022/11/16 06:26:48;;;;;;;19.40;11.40;;;;;;;6.68;77.29;99754.75;104976;1294;107813;-82
2022/11/16 06:29:20;;;;;;;19.10;10.90;;;;;;;6.75;77.23;99755.86;104843;1295;140521;-84
2022/11/16 06:31:50;;;;;;;19.90;11.20;;;;;;;6.79;77.11;99753.99;105024;1284;108130;-83
2022/11/16 06:34:21;;;;;;;19.00;11.00;;;;;;;6.79;76.71;99746.23;104744;1286;139314;-81
2022/11/16 06:36:52;;;;;;;19.10;10.70;;;;;;;6.78;76.63;99739.54;104965;1284;93506;-82
2022/11/16 06:39:23;;;;;;;18.20;10.40;;;;;;;6.74;76.71;99740.88;104999;1302;108428;-80
2022/11/16 06:41:54;;;;;;;17.40;10.20;;;;;;;6.65;76.38;99738.77;104799;1287;140466;-81
2022/11/16 06:44:25;;;;;;;18.40;10.90;;;;;;;6.50;76.76;99730.25;104925;1302;107525;-81
2022/11/16 06:46:59;;;;;;;20.30;11.20;;;;;;;6.44;77.43;99726.84;104781;1300;139266;-82
2022/11/16 06:49:31;;;;;;;18.20;10.40;;;;;;;6.44;77.32;99725.61;104971;1282;93035;-81
2022/11/16 06:52:03;;;;;;;19.80;11.50;;;;;;;6.44;77.75;99726.67;104999;1282;108606;-80
2022/11/16 06:54:34;;;;;;;19.40;11.00;;;;;;;6.55;77.74;99736.48;104843;1293;139119;-81
2022/11/16 06:57:05;;;;;;;18.70;11.30;;;;;;;6.59;77.00;99742.05;104986;1299;106577;-81
2022/11/16 06:59:36;;;;;;;19.50;11.40;;;;;;;6.57;77.14;99742.98;104959;1281;138819;-80
2022/11/16 07:02:09;;;;;;;19.20;11.00;;;;;;;6.55;77.37;99739.16;105066;1285;93794;-81
2022/11/16 07:04:40;;;;;;;17.30;10.30;;;;;;;6.59;77.18;99733.77;104993;1285;139005;-81
2022/11/16 07:07:10;;;;;;;17.90;10.40;;;;;;;6.53;77.37;99727.70;104975;1301;96480;-82
2022/11/16 07:09:43;;;;;;;18.40;10.70;;;;;;;6.53;77.49;99730.88;104940;1298;107815;-82
2022/11/16 07:12:14;;;;;;;17.50;10.20;;;;;;;6.63;77.45;99730.52;104820;1306;138232;-82
2022/11/16 07:14:45;;;;;;;17.50;10.40;;;;;;;6.66;77.28;99730.27;105077;1297;93152;-81
2022/11/16 07:17:16;;;;;;;17.50;9.80;;;;;;;6.73;77.14;99726.96;104821;1294;139026;-81
2022/11/16 07:19:47;;;;;;;17.40;10.30;;;;;;;6.69;76.87;99718.22;104934;1305;97719;-81
2022/11/16 07:22:18;;;;;;;17.20;10.00;;;;;;;6.65;76.90;99714.42;104868;1299;140385;-82
2022/11/16 07:24:50;;;;;;;18.00;10.50;;;;;;;6.61;77.08;99710.27;104986;1299;93092;-84
2022/11/16 07:27:20;;;;;;;16.50;9.70;;;;;;;6.59;77.20;99704.66;104952;1297;93198;-82
2022/11/16 07:29:53;;;;;;;17.30;9.80;;;;;;;6.60;76.95;99708.89;104812;1303;139155;-84
2022/11/16 07:32:38;;;;;;;17.80;9.80;;;;;;;6.59;77.15;99711.55;104980;1292;98405;-81
2022/11/16 07:35:27;;;;;;;15.40;8.90;;;;;;;6.69;77.02;99714.88;104849;1293;139943;-83
2022/11/16 07:37:58;;;;;;;18.50;10.30;;;;;;;6.62;76.65;99712.18;105081;1298;92995;-84
2022/11/16 07:40:29;;;;;;;17.40;9.90;;;;;;;6.59;76.94;99711.36;105003;1299;139310;-84
2022/11/16 07:43:00;;;;;;;18.30;10.60;;;;;;;6.61;77.23;99707.98;104944;1296;109058;-83
2022/11/16 07:45:40;;;;;;;17.10;10.40;;;;;;;6.68;77.23;99711.73;104962;1298;98367;-82
2022/11/16 07:48:12;;;;;;;18.20;10.70;;;;;;;6.68;77.42;99711.19;104866;1296;139017;-82
2022/11/16 07:51:21;;;;;;;18.70;10.00;;;;;;;6.73;77.32;99713.02;105051;1291;93260;-82
2022/11/16 07:54:06;;;;;;;17.30;10.50;;;;;;;6.67;77.40;99714.21;104772;1290;140116;-83
2022/11/16 07:56:36;;;;;;;18.00;10.40;;;;;;;6.68;77.94;99713.30;104975;1301;108701;-82
2022/11/16 07:59:07;;;;;;;17.20;10.10;;;;;;;6.72;78.09;99709.34;104909;1297;141460;-85
2022/11/16 08:01:41;;;;;;;18.00;10.90;;;;;;;6.66;77.96;99707.88;103872;1294;107873;-81
2022/11/16 08:04:14;;;;;;;16.70;10.10;;;;;;;6.62;78.39;99702.31;104678;1294;93729;-82
2022/11/16 08:06:49;;;;;;;17.20;10.30;;;;;;;6.66;78.73;99701.35;104880;1299;93269;-83
2022/11/16 08:09:21;;;;;;;16.90;9.80;;;;;;;6.63;78.46;99703.54;104852;1301;109000;-82
2022/11/16 08:11:52;;;;;;;16.60;9.90;;;;;;;6.67;78.81;99700.27;104748;1293;139530;-82
2022/11/16 08:14:23;;;;;;;18.60;10.90;;;;;;;6.65;78.52;99698.02;104971;1292;105744;-82
2022/11/16 08:16:54;;;;;;;18.10;10.80;;;;;;;6.69;78.54;99695.81;104753;1295;140120;-82
2022/11/16 08:19:25;;;;;;;17.10;10.80;;;;;;;6.66;78.44;99695.88;104921;1296;93024;-82
2022/11/16 08:21:56;;;;;;;20.40;11.20;;;;;;;6.62;78.78;99694.71;104977;1283;108418;-82
2022/11/16 08:24:27;;;;;;;19.90;10.90;;;;;;;6.66;78.68;99696.77;104763;1294;140947;-81
2022/11/16 08:26:58;;;;;;;18.50;11.60;;;;;;;6.69;79.06;99702.17;104779;1286;106608;-82
2022/11/16 08:29:29;;;;;;;18.30;10.50;;;;;;;6.75;78.65;99700.81;104654;1292;141186;-82
2022/11/16 08:32:00;;;;;;;19.40;10.70;;;;;;;6.66;78.60;99699.75;104898;1300;93141;-82
2022/11/16 08:34:31;;;;;;;21.70;12.50;;;;;;;6.64;78.90;99698.55;104860;1298;139136;-81
2022/11/16 08:37:02;;;;;;;18.40;11.10;;;;;;;6.68;78.86;99697.95;104923;1299;97554;-82
2022/11/16 08:39:40;;;;;;;19.80;12.10;;;;;;;6.72;79.10;99701.04;104872;1284;107898;-81
2022/11/16 08:42:11;;;;;;;18.10;10.70;;;;;;;6.77;78.84;99701.65;104790;1297;142277;-80
2022/11/16 08:44:42;;;;;;;19.00;10.10;;;;;;;6.77;78.42;99705.86;104977;1302;93231;-81
2022/11/16 08:47:15;;;;;;;17.30;9.90;;;;;;;6.72;78.46;99704.38;104788;1278;139890;-81
2022/11/16 08:49:57;;;;;;;17.00;10.40;;;;;;;6.67;78.55;99704.48;104875;1291;98425;-82
2022/11/16 08:52:29;;;;;;;16.30;10.00;;;;;;;6.68;78.90;99712.06;104766;1294;139945;-83
2022/11/16 08:55:01;;;;;;;15.30;9.80;;;;;;;6.65;78.77;99711.25;104862;1302;94337;-82
2022/11/16 08:57:32;;;;;;;15.40;9.10;;;;;;;6.67;78.91;99716.69;104891;1298;93007;-78
2022/11/16 09:00:09;;;;;;;17.40;9.60;;;;;;;6.66;78.89;99712.45;104665;1286;141170;-82
2022/11/16 09:02:40;;;;;;;15.00;8.80;;;;;;;6.63;78.83;99708.84;104978;1292;98062;-81
2022/11/16 09:05:11;;;;;;;14.20;7.90;;;;;;;6.59;78.42;99713.67;104873;1285;139957;-84
2022/11/16 09:07:44;;;;;;;15.00;8.00;;;;;;;6.55;78.39;99714.63;104918;1285;93595;-82
2022/11/16 09:10:17;;;;;;;12.90;7.80;;;;;;;6.57;78.67;99710.35;104837;1292;140884;-82
2022/11/16 09:12:48;;;;;;;13.30;7.90;;;;;;;6.60;78.30;99708.34;104968;1293;106816;-84
2022/11/16 09:15:19;;;;;;;13.00;8.10;;;;;;;6.59;78.23;99705.55;104973;1285;98092;-84
2022/11/16 09:17:53;;;;;;;13.20;8.00;;;;;;;6.59;78.05;99697.45;104865;1293;140146;-82
2022/11/16 09:20:25;;;;;;;14.40;7.80;;;;;;;6.55;78.38;99696.30;104984;1294;92902;-82
2022/11/16 09:22:56;;;;;;;12.30;7.50;;;;;;;6.60;78.67;99691.61;104879;1291;139649;-82
2022/11/16 09:25:26;;;;;;;12.90;7.50;;;;;;;6.63;78.38;99690.30;104980;1292;108715;-80
2022/11/16 09:27:57;;;;;;;12.60;7.40;;;;;;;6.61;78.58;99686.12;104975;1292;98067;-84
2022/11/16 09:30:29;;;;;;;9.70;5.60;;;;;;;6.65;78.54;99684.42;104837;1292;138760;-82
2022/11/16 09:33:00;;;;;;;10.90;6.20;;;;;;;6.65;78.02;99685.33;104962;1292;93008;-82
2022/11/16 09:35:31;;;;;;;9.80;5.90;;;;;;;6.61;77.57;99688.92;104888;1285;143177;-80
2022/11/16 09:38:02;;;;;;;10.10;5.70;;;;;;;6.57;78.03;99683.20;104951;1299;109002;-81
2022/11/16 09:40:37;;;;;;;9.30;5.10;;;;;;;6.52;77.92;99681.54;104891;1294;139979;-80
2022/11/16 09:43:19;;;;;;;9.80;5.40;;;;;;;6.48;78.22;99684.08;104942;1288;107504;-79
2022/11/16 09:46:00;;;;;;;9.70;5.40;;;;;;;6.49;78.13;99684.60;104974;1291;94265;-79
2022/11/16 09:48:35;;;;;;;9.20;5.40;;;;;;;6.42;78.14;99681.58;104846;1297;138955;-80
2022/11/16 09:51:11;;;;;;;9.10;4.80;;;;;;;6.41;78.42;99682.47;104976;1290;109761;-80
2022/11/16 09:53:45;;;;;;;8.80;4.80;;;;;;;6.41;78.34;99681.77;104866;1293;141633;-80
2022/11/16 09:56:21;;;;;;;8.90;5.10;;;;;;;6.42;78.35;99681.41;104963;1296;107527;-81
2022/11/16 09:58:59;;;;;;;9.00;4.80;;;;;;;6.51;78.86;99679.98;104859;1284;141386;-80
2022/11/16 10:01:36;;;;;;;8.60;4.60;;;;;;;6.57;78.51;99680.03;104977;1292;93347;-81
2022/11/16 10:04:11;;;;;;;9.40;5.20;;;;;;;6.58;78.25;99677.17;104948;1297;107436;-80
2022/11/16 10:06:49;;;;;;;11.40;5.20;;;;;;;6.65;78.18;99675.97;104866;1299;140190;-81
2022/11/16 10:09:20;;;;;;;10.00;5.40;;;;;;;6.66;78.13;99674.52;104960;1285;107219;-83
2022/11/16 10:12:00;;;;;;;9.10;5.00;;;;;;;6.67;77.72;99670.29;104858;1292;141776;-81
2022/11/16 10:14:49;;;;;;;9.40;4.60;;;;;;;6.60;77.25;99668.49;104957;1298;93731;-81
2022/11/16 10:17:31;;;;;;;8.90;5.00;;;;;;;6.63;78.03;99656.80;104844;1299;139517;-80
2022/11/16 10:20:18;;;;;;;9.10;5.40;;;;;;;6.68;77.70;99655.96;104965;1297;97945;-80
2022/11/16 10:22:55;;;;;;;8.70;5.10;;;;;;;6.79;77.72;99653.08;104813;1288;138349;-80
2022/11/16 10:25:32;;;;;;;9.60;5.20;;;;;;;6.80;76.99;99654.27;104941;1291;93673;-81
2022/11/16 10:28:40;;;;;;;11.50;5.50;;;;;;;6.80;77.05;99649.90;105009;1297;94163;-79
2022/11/16 10:31:18;;;;;;;12.20;5.40;;;;;;;6.83;76.81;99645.94;104886;1291;107679;-81
2022/11/16 10:33:53;;;;;;;8.80;5.00;;;;;;;6.82;76.53;99646.13;104972;1299;98088;-80
2022/11/16 10:36:29;;;;;;;9.80;5.10;;;;;;;6.85;76.61;99645.00;104860;1292;141059;-82
2022/11/16 10:39:01;;;;;;;9.90;5.50;;;;;;;6.91;76.58;99645.21;104975;1297;92879;-81
2022/11/16 10:41:37;;;;;;;7.70;4.30;;;;;;;6.94;76.60;99650.25;104843;1285;140872;-80
2022/11/16 10:44:17;;;;;;;9.70;4.90;;;;;;;6.98;76.41;99648.23;104932;1285;108088;-80
2022/11/16 10:46:57;;;;;;;8.10;4.80;;;;;;;6.98;76.07;99652.98;104853;1284;140679;-81
2022/11/16 10:49:34;;;;;;;9.20;5.00;;;;;;;6.94;75.80;99652.02;104948;1286;107209;-80
2022/11/16 10:52:05;;;;;;;9.30;4.70;;;;;;;6.94;75.86;99649.04;104947;1292;93162;-80
2022/11/16 10:54:36;;;;;;;8.40;4.90;;;;;;;6.94;75.74;99650.60;104843;1292;138518;-80
2022/11/16 10:57:13;;;;;;;8.70;4.60;;;;;;;6.93;75.57;99649.41;104981;1297;108376;-82
2022/11/16 10:59:46;;;;;;;9.20;4.90;;;;;;;6.92;75.55;99648.02;104869;1290;138650;-81
2022/11/16 11:02:32;;;;;;;8.10;4.50;;;;;;;6.96;75.80;99643.52;104959;1291;107096;-79
2022/11/16 11:05:15;;;;;;;8.30;4.40;;;;;;;7.02;75.57;99639.30;104832;1284;140900;-80
2022/11/16 11:07:49;;;;;;;9.10;4.70;;;;;;;7.13;75.53;99640.27;104845;1294;93099;-80
2022/11/16 11:10:31;;;;;;;9.80;5.30;;;;;;;7.22;75.16;99637.77;104841;1284;140227;-81
2022/11/16 11:13:20;;;;;;;8.90;4.90;;;;;;;7.23;75.02;99637.90;104975;1283;98070;-80
2022/11/16 11:15:52;;;;;;;7.70;4.20;;;;;;;7.21;74.18;99633.73;104955;1292;110220;-81
2022/11/16 11:18:28;;;;;;;8.80;4.20;;;;;;;7.06;74.14;99631.09;104899;1298;140344;-81
2022/11/16 11:21:12;;;;;;;8.60;4.40;;;;;;;6.96;74.19;99630.98;104955;1276;95208;-80
2022/11/16 11:23:47;;;;;;;8.10;4.00;;;;;;;6.91;74.45;99632.33;104825;1286;139472;-78
2022/11/16 11:26:37;;;;;;;8.50;4.30;;;;;;;6.94;74.20;99639.68;104930;1285;97982;-80
2022/11/16 11:29:22;;;;;;;9.10;4.40;;;;;;;6.98;74.94;99642.04;104838;1293;138844;-78
2022/11/16 11:31:54;;;;;;;7.50;4.20;;;;;;;6.99;74.37;99639.20;104991;1292;93886;-78
2022/11/16 11:34:28;;;;;;;7.50;3.80;;;;;;;7.02;74.93;99640.54;104883;1292;139314;-80
2022/11/16 11:37:01;;;;;;;7.10;3.60;;;;;;;7.04;74.49;99638.73;104929;1299;108061;-79
2022/11/16 11:39:34;;;;;;;7.40;3.90;;;;;;;6.99;74.24;99641.86;104958;1293;98578;-81
2022/11/16 11:42:19;;;;;;;7.40;3.80;;;;;;;7.00;74.87;99637.41;104875;1292;140711;-80
2022/11/16 11:44:56;;;;;;;6.70;3.60;;;;;;;7.08;75.00;99635.10;104956;1295;93556;-78
2022/11/16 11:47:37;;;;;;;7.50;3.70;;;;;;;7.08;74.59;99632.64;104892;1294;140159;-81
2022/11/16 11:50:40;;;;;;;7.10;3.70;;;;;;;7.09;74.03;99631.89;104965;1284;108466;-81
2022/11/16 11:53:24;;;;;;;7.00;4.00;;;;;;;7.08;74.01;99632.98;104791;1284;140853;-81
2022/11/16 11:55:58;;;;;;;6.90;3.40;;;;;;;7.12;73.60;99629.02;104947;1294;107431;-81
2022/11/16 11:58:32;;;;;;;6.40;3.20;;;;;;;7.06;73.31;99625.27;104866;1288;140378;-81
2022/11/16 12:01:19;;;;;;;6.40;3.30;;;;;;;7.03;73.53;99623.91;104964;1294;93566;-81
2022/11/16 12:04:27;;;;;;;6.00;3.30;;;;;;;7.08;73.57;99624.52;105005;1295;109004;-82
2022/11/16 12:07:05;;;;;;;7.00;3.40;;;;;;;7.04;73.14;99620.55;104973;1292;97273;-83
2022/11/16 12:09:46;;;;;;;7.10;3.10;;;;;;;7.05;73.64;99625.11;104962;1293;107509;-81
2022/11/16 12:12:28;;;;;;;6.30;3.20;;;;;;;7.07;73.04;99630.18;104845;1292;140356;-81
2022/11/16 12:15:15;;;;;;;6.20;3.20;;;;;;;7.10;73.19;99629.77;105000;1287;93304;-81
2022/11/16 12:17:56;;;;;;;6.40;3.50;;;;;;;7.17;73.43;99633.29;104854;1298;139487;-82
2022/11/16 12:20:38;;;;;;;7.80;3.60;;;;;;;7.24;73.55;99628.55;104994;1299;98594;-81
2022/11/16 12:23:34;;;;;;;8.20;4.10;;;;;;;7.22;72.81;99630.17;104830;1294;140261;-79
2022/11/16 12:26:13;;;;;;;8.90;4.20;;;;;;;7.20;72.29;99629.69;104926;1292;93303;-82
2022/11/16 12:28:57;;;;;;;8.50;4.60;;;;;;;7.16;72.39;99634.55;104853;1291;139494;-79
2022/11/16 12:31:46;;;;;;;7.30;3.40;;;;;;;7.11;73.00;99633.09;104958;1289;107797;-80
2022/11/16 12:34:27;;;;;;;6.90;2.90;;;;;;;7.05;72.47;99632.52;104965;1292;98212;-80
2022/11/16 12:37:04;;;;;;;6.90;3.40;;;;;;;6.98;72.06;99630.23;104955;1292;107555;-81
2022/11/16 12:39:43;;;;;;;7.70;3.20;;;;;;;6.95;72.62;99633.13;104941;1294;93785;-80